Beulah Beach, Ohio
Current Conditions -  °F | °C
As of 11:45 AM on Thursday 23 Oct 2014 (Local Time) from KLPR Reporting Station
Scattered Clouds Scattered Clouds  
Wind Chill: 53°   Ceiling: Unl
Heat Index: 53°   Visibility: 10mi
Dew Point: 44°   Wind: 9mph
Humidity: 71%   Direction: 350°N
Pressure: 30.23"   Gusts: NA
Location:  41.3884°N, 82.3643°W
Report Text: KLPR 231545Z AUTO 35008KT 10SM SCT018 12/07 A3023 RMK AO2 T01170067 TSNO $
Loading
Personal Weather Stations






























Interactive Weather Map
Tropical Storm Tracking
New forecast layout! Learn more

10-Day Weather Forecast

Advertisements
Track Severe Weather on mobile